High Level Airport
CYOJ : now visible

Airfield :











YOU CAN JOIN US ON...

 
LOGIN :

Register | Disclaimer

   EN    FR    IT 

 









Legend :    VFR   Marginal VFR   IFR   Intensive IFR   Very Intensive IFR
Visi :
Ceiling :
>= 8 km
>= 3000ft
5 to 8 km
1000 to 3000 ft
1500m to 5 km
500 to 1000 ft
800 to 1500m
200 to 500 ft
< 800m
< 200 ft
Symbols :   Thunderstorms  Fog  Heavy snow  Heavy precipitations  Wind > 20 kt







- Airport Elevation : 1110 ft
- IATA code : YOJ


CYOJ - High Level

CURRENT METAR :
  • 212100Z VRB04KT 15SM FEW110 BKN230 20/09 A2947 RMK AC2CI4 SLP990 DENSITY ALT 2500FT

EXPIRED METARs :
  • 212000Z 26004KT 170V280 15SM FEW110 BKN230 18/09 A2949 RMK AC1CI6 SLP998 DENSITY ALT 2300FT
  • 211900Z 19005KT 130V210 15SM FEW110 BKN250 16/09 A2949 RMK AC1CI6 SLP000 DENSITY ALT 2000FT

TAF TAF CYOJ
Valid from the 21 at 19:00 until the 22 at 07:00 UTC


211838Z 2119/2207 14007KT P6SM SCT100 BKN250
TEMPO 2119/2121 BKN100 BKN250
BECMG 2119/2121 18008KT
FM212100 18008KT P6SM FEW080 BKN200
BECMG 2200/2202 18005KT RMK NXT FCST BY 220100Z
No reported NOTAMs for that airfield.



MET'MAP, your aeronautical weather chart ! - Copyright ORBIFLY December 2007 - Disclaimer

ORBIFLY MET'MAP TEAM :

Programming & Development : Alexandra Zaïnal
Concept & Development : Baudouin d'Aumeries
Co-Development & Prog : Marc-Olivier Méhu
Technical & hardware support : Manuel Goepfert

Contact : metmap@orbifly.com




SOURCES & CREDITS :

   NOAA       Earth
Advisory